Time;durP1;ratioP1;P1;durP2;ratioP2;P2;SDS_P1;SDS_P2;PMS_P1;PMS_P2;Temp;Humidity;BMP_temperature;BMP_pressure;BME280_temperature;BME280_humidity;BME280_pressure;Samples;Min_cycle;Max_cycle;Signal;HPM_P1;HPM_P2
2023/07/03 00:02:39;;;;;;;22.40;5.82;;;;;15.00;100602.00;;;;10558984;28;20220;-84
2023/07/03 00:07:40;;;;;;;21.90;4.90;;;;;15.00;100607.00;;;;10508460;28;20567;-85
2023/07/03 00:12:43;;;;;;;18.33;4.70;;;;;15.00;100591.00;;;;10498112;28;20197;-75
2023/07/03 00:17:44;;;;;;;23.27;5.13;;;;;15.00;100608.00;;;;10546934;28;20196;-84
2023/07/03 00:22:51;;;;;;;21.60;5.00;;;;;15.00;100604.00;;;;10536758;28;20649;-81
2023/07/03 00:27:53;;;;;;;18.88;4.40;;;;;14.90;100600.00;;;;10530028;28;20205;-77
2023/07/03 00:32:55;;;;;;;25.55;5.38;;;;;14.90;100605.00;;;;10507493;28;20193;-75
2023/07/03 00:37:56;;;;;;;23.73;4.97;;;;;15.00;100605.00;;;;10522545;28;20288;-79
2023/07/03 00:42:58;;;;;;;23.55;5.03;;;;;15.00;100602.00;;;;10498855;28;20487;-80
2023/07/03 00:48:00;;;;;;;17.47;4.53;;;;;15.00;100611.00;;;;10509251;28;20206;-76
2023/07/03 00:53:03;;;;;;;23.25;5.18;;;;;15.00;100613.00;;;;10520380;28;20288;-77
2023/07/03 00:58:04;;;;;;;19.37;5.23;;;;;15.00;100609.00;;;;10489266;28;20205;-76
2023/07/03 01:03:23;;;;;;;20.27;4.80;;;;;14.90;100609.00;;;;10510747;28;20257;-80
2023/07/03 01:08:25;;;;;;;26.42;5.22;;;;;14.90;100619.00;;;;10485357;28;20197;-76
2023/07/03 01:13:29;;;;;;;22.87;5.37;;;;;14.80;100614.00;;;;10518356;28;20209;-76
2023/07/03 01:18:32;;;;;;;23.07;5.43;;;;;14.80;100612.00;;;;10479234;28;20686;-77
2023/07/03 01:24:07;;;;;;;26.67;5.82;;;;;14.80;100610.00;;;;10462863;28;20296;-75
2023/07/03 01:29:10;;;;;;;24.80;5.70;;;;;14.80;100611.00;;;;10481738;28;20658;-76
2023/07/03 01:34:12;;;;;;;23.60;5.10;;;;;14.70;100611.00;;;;10477017;28;20211;-78
2023/07/03 01:39:15;;;;;;;22.25;5.25;;;;;14.70;100613.00;;;;10481869;28;20296;-82
2023/07/03 01:44:18;;;;;;;23.25;5.15;;;;;14.60;100612.00;;;;10492295;28;20224;-82
2023/07/03 01:49:19;;;;;;;20.65;5.13;;;;;14.60;100605.00;;;;10494889;28;20570;-80
2023/07/03 01:54:30;;;;;;;21.47;5.87;;;;;14.60;100604.00;;;;10496827;28;20206;-76
2023/07/03 01:59:33;;;;;;;26.23;6.20;;;;;14.60;100604.00;;;;10496143;28;20201;-79
2023/07/03 02:04:40;;;;;;;26.87;6.17;;;;;14.60;100597.00;;;;10477288;28;20205;-82
2023/07/03 02:09:42;;;;;;;23.57;5.70;;;;;14.60;100586.00;;;;10501626;28;20220;-80
2023/07/03 02:14:44;;;;;;;28.15;5.78;;;;;14.60;100591.00;;;;10474758;28;20795;-81
2023/07/03 02:19:45;;;;;;;20.80;6.07;;;;;14.60;100587.00;;;;10482728;28;20738;-78
2023/07/03 02:24:47;;;;;;;28.73;6.70;;;;;14.70;100587.00;;;;10492651;28;20235;-76
2023/07/03 02:29:49;;;;;;;30.63;5.83;;;;;14.70;100582.00;;;;10497327;28;20193;-78
2023/07/03 02:34:50;;;;;;;24.93;6.03;;;;;14.70;100575.00;;;;10487294;28;20189;-79
2023/07/03 02:39:52;;;;;;;30.30;6.90;;;;;14.80;100578.00;;;;10494103;28;20250;-76
2023/07/03 02:44:53;;;;;;;24.77;5.93;;;;;14.80;100579.00;;;;10518509;28;20428;-77
2023/07/03 02:49:54;;;;;;;24.00;6.25;;;;;14.80;100591.00;;;;10497997;28;20205;-77
2023/07/03 02:54:57;;;;;;;27.83;6.20;;;;;14.80;100589.00;;;;10488381;28;20377;-82
2023/07/03 02:59:58;;;;;;;27.93;6.03;;;;;14.90;100587.00;;;;10501964;28;20661;-77
2023/07/03 03:05:00;;;;;;;23.92;6.18;;;;;14.90;100582.00;;;;10504724;28;20286;-77
2023/07/03 03:10:02;;;;;;;25.40;5.95;;;;;14.90;100580.00;;;;10501520;28;20189;-76
2023/07/03 03:15:05;;;;;;;30.45;7.65;;;;;14.90;100581.00;;;;10486365;28;20599;-75
2023/07/03 03:20:08;;;;;;;25.10;6.72;;;;;14.90;100568.00;;;;10485894;28;20190;-80
2023/07/03 03:25:09;;;;;;;27.03;6.07;;;;;14.90;100576.00;;;;10498944;28;20298;-76
2023/07/03 03:30:11;;;;;;;26.65;6.25;;;;;14.90;100573.00;;;;10493007;28;20621;-76
2023/07/03 03:35:15;;;;;;;23.07;6.20;;;;;14.90;100576.00;;;;10486876;28;20202;-77
2023/07/03 03:40:16;;;;;;;21.48;6.43;;;;;14.90;100582.00;;;;10497018;28;20212;-77
2023/07/03 03:45:18;;;;;;;24.57;7.67;;;;;14.90;100575.00;;;;10489661;28;20530;-76
2023/07/03 03:50:20;;;;;;;24.53;6.63;;;;;14.90;100579.00;;;;10506594;28;20200;-80
2023/07/03 03:55:22;;;;;;;24.02;6.40;;;;;15.00;100576.00;;;;10491101;28;20378;-83
2023/07/03 04:00:23;;;;;;;24.87;7.30;;;;;15.00;100577.00;;;;10503096;28;20710;-76
2023/07/03 04:05:25;;;;;;;29.42;6.85;;;;;15.10;100578.00;;;;10495859;28;20217;-76
2023/07/03 04:10:26;;;;;;;23.85;7.13;;;;;15.10;100590.00;;;;10492175;28;20768;-77
2023/07/03 04:15:34;;;;;;;29.50;8.20;;;;;15.10;100582.00;;;;10483914;28;20254;-76
2023/07/03 04:20:35;;;;;;;23.30;6.53;;;;;15.20;100591.00;;;;10471570;28;20208;-83
2023/07/03 04:25:37;;;;;;;24.87;7.23;;;;;15.20;100599.00;;;;10482274;28;20404;-75
2023/07/03 04:30:38;;;;;;;25.73;6.50;;;;;15.40;100598.00;;;;10502083;28;20203;-77
2023/07/03 04:35:40;;;;;;;26.98;7.00;;;;;15.60;100608.00;;;;10485880;28;20258;-80
2023/07/03 04:40:41;;;;;;;19.08;6.43;;;;;15.70;100613.00;;;;10493961;28;20208;-76
2023/07/03 04:45:53;;;;;;;20.70;7.00;;;;;15.80;100609.00;;;;10516605;28;20610;-79
2023/07/03 04:50:55;;;;;;;18.55;6.32;;;;;15.90;100604.00;;;;10510096;28;20194;-77
2023/07/03 04:55:57;;;;;;;22.58;7.32;;;;;16.20;100615.00;;;;10491381;28;20279;-77
2023/07/03 05:00:58;;;;;;;23.30;6.50;;;;;16.50;100610.00;;;;10492123;28;20480;-78
2023/07/03 05:05:59;;;;;;;20.85;5.85;;;;;16.80;100614.00;;;;10510316;28;20205;-78
2023/07/03 05:11:01;;;;;;;22.80;5.78;;;;;16.50;100614.00;;;;10448207;28;20202;-77
2023/07/03 05:16:02;;;;;;;21.25;6.45;;;;;16.50;100616.00;;;;10509990;28;20216;-78
2023/07/03 05:21:06;;;;;;;17.48;5.78;;;;;16.90;100610.00;;;;10475537;28;20216;-76
2023/07/03 05:26:07;;;;;;;17.20;5.55;;;;;17.30;100625.00;;;;10491265;28;20698;-77
2023/07/03 05:31:08;;;;;;;19.80;5.55;;;;;17.80;100619.00;;;;10498285;28;20204;-84
2023/07/03 05:36:10;;;;;;;19.20;5.78;;;;;18.80;100627.00;;;;10506050;28;20196;-77
2023/07/03 05:41:11;;;;;;;21.77;5.95;;;;;19.10;100624.00;;;;10494755;28;20246;-76
2023/07/03 05:46:13;;;;;;;21.63;6.88;;;;;19.10;100636.00;;;;10514910;28;20241;-77
2023/07/03 05:51:14;;;;;;;20.02;5.15;;;;;18.70;100638.00;;;;10493526;28;20269;-78
2023/07/03 05:56:15;;;;;;;17.40;5.38;;;;;18.50;100644.00;;;;10507878;28;20240;-74
2023/07/03 06:01:16;;;;;;;16.30;5.60;;;;;18.50;100639.00;;;;10511419;28;20586;-77
2023/07/03 06:06:18;;;;;;;17.48;5.72;;;;;18.50;100629.00;;;;10481807;28;20255;-77
2023/07/03 06:11:19;;;;;;;23.92;7.50;;;;;18.40;100631.00;;;;10513876;28;20200;-81
2023/07/03 06:16:20;;;;;;;27.83;6.65;;;;;18.00;100634.00;;;;10491999;28;20202;-79
2023/07/03 06:21:22;;;;;;;20.13;6.85;;;;;17.90;100630.00;;;;10504796;28;20251;-82
2023/07/03 06:26:23;;;;;;;24.38;6.70;;;;;17.80;100636.00;;;;10502639;28;20444;-80
2023/07/03 06:31:24;;;;;;;25.48;6.93;;;;;17.70;100636.00;;;;10506910;28;20209;-76
2023/07/03 06:36:26;;;;;;;26.65;7.40;;;;;17.60;100648.00;;;;10497546;28;20201;-75
2023/07/03 06:41:29;;;;;;;19.58;6.97;;;;;17.60;100650.00;;;;10507180;28;20663;-77
2023/07/03 06:46:31;;;;;;;20.23;7.07;;;;;17.50;100653.00;;;;10510764;28;20601;-77
2023/07/03 06:51:32;;;;;;;19.98;6.18;;;;;17.50;100645.00;;;;10507449;28;20198;-76
2023/07/03 06:56:34;;;;;;;19.63;6.57;;;;;17.60;100646.00;;;;10491847;28;20234;-75
2023/07/03 07:01:35;;;;;;;15.73;5.25;;;;;17.60;100659.00;;;;10490506;28;20504;-83
2023/07/03 07:06:38;;;;;;;14.68;5.40;;;;;17.50;100664.00;;;;10489201;28;20725;-77
2023/07/03 07:11:39;;;;;;;12.75;5.18;;;;;17.20;100675.00;;;;10505557;28;20193;-77
2023/07/03 07:16:42;;;;;;;13.07;4.38;;;;;16.90;100656.00;;;;10512348;28;20193;-73
2023/07/03 07:21:44;;;;;;;11.98;4.30;;;;;16.50;100666.00;;;;10470270;28;20212;-78
2023/07/03 07:26:46;;;;;;;34.10;6.40;;;;;16.60;100671.00;;;;10517165;28;20193;-76
2023/07/03 07:31:47;;;;;;;13.35;4.60;;;;;17.10;100666.00;;;;10511018;28;20208;-77
2023/07/03 07:36:48;;;;;;;9.52;3.55;;;;;17.00;100681.00;;;;10490082;28;20189;-77
2023/07/03 07:41:51;;;;;;;16.45;5.38;;;;;17.30;100678.00;;;;10496281;28;20224;-76
2023/07/03 07:46:52;;;;;;;22.45;5.43;;;;;18.60;100670.00;;;;10481673;28;20646;-77
2023/07/03 07:51:54;;;;;;;16.98;5.80;;;;;19.70;100670.00;;;;10466231;28;20201;-81
2023/07/03 07:56:56;;;;;;;19.23;5.75;;;;;21.30;100660.00;;;;10494944;28;20273;-78
2023/07/03 08:01:57;;;;;;;14.57;6.28;;;;;22.10;100670.00;;;;10513389;28;20244;-82
2023/07/03 08:06:59;;;;;;;13.05;5.82;;;;;23.80;100643.00;;;;10525427;28;20200;-82
2023/07/03 08:12:02;;;;;;;13.25;5.72;;;;;23.70;100655.00;;;;10506344;28;20233;-82
2023/07/03 08:17:04;;;;;;;13.98;5.18;;;;;23.40;100639.00;;;;10518784;28;20201;-83
2023/07/03 08:22:05;;;;;;;12.35;5.05;;;;;24.40;100643.00;;;;10549693;28;20209;-74
2023/07/03 08:27:06;;;;;;;16.63;6.28;;;;;24.50;100650.00;;;;10530168;28;20565;-78
2023/07/03 08:32:10;;;;;;;12.23;5.13;;;;;24.20;100647.00;;;;10507899;28;20232;-75
2023/07/03 08:37:11;;;;;;;15.90;5.65;;;;;24.20;100653.00;;;;10501140;28;20206;-75
2023/07/03 08:42:21;;;;;;;13.60;4.57;;;;;24.00;100666.00;;;;10499629;28;20592;-85
2023/07/03 08:47:26;;;;;;;13.13;4.20;;;;;23.00;100663.00;;;;10529205;28;20690;-76
2023/07/03 08:52:37;;;;;;;17.35;5.57;;;;;22.40;100664.00;;;;10506995;28;20212;-78
2023/07/03 08:57:38;;;;;;;14.60;5.10;;;;;24.20;100669.00;;;;10512497;28;20250;-83
2023/07/03 09:02:54;;;;;;;13.38;4.13;;;;;26.30;100667.00;;;;10522009;28;20578;-77
2023/07/03 09:08:01;;;;;;;13.57;4.40;;;;;26.70;100667.00;;;;10519229;28;20569;-77
2023/07/03 09:13:23;;;;;;;18.38;4.65;;;;;26.90;100676.00;;;;10537934;28;20307;-75
2023/07/03 09:18:34;;;;;;;14.00;4.35;;;;;27.00;100677.00;;;;10519069;28;20205;-84
2023/07/03 09:23:52;;;;;;;14.63;4.00;;;;;25.00;100684.00;;;;10508159;28;20221;-75
2023/07/03 09:28:58;;;;;;;15.90;3.67;;;;;23.80;100684.00;;;;10524004;28;20254;-75
2023/07/03 09:33:59;;;;;;;12.15;3.90;;;;;22.60;100679.00;;;;10511251;28;20210;-76
2023/07/03 09:39:17;;;;;;;11.38;3.65;;;;;22.30;100685.00;;;;10503712;28;20666;-82
2023/07/03 09:44:21;;;;;;;17.98;4.55;;;;;23.60;100686.00;;;;10538705;28;20307;-82
2023/07/03 09:49:28;;;;;;;10.43;3.30;;;;;25.40;100668.00;;;;10530234;28;20262;-86
2023/07/03 09:54:31;;;;;;;12.63;3.75;;;;;26.70;100681.00;;;;10528690;28;20627;-86
2023/07/03 09:59:35;;;;;;;12.18;3.40;;;;;25.30;100693.00;;;;10513418;28;20211;-75
2023/07/03 10:04:45;;;;;;;12.27;3.05;;;;;23.50;100702.00;;;;10530097;28;20217;-84
2023/07/03 10:09:49;;;;;;;9.77;3.08;;;;;22.70;100699.00;;;;10525502;28;20578;-76
2023/07/03 10:15:02;;;;;;;13.82;3.95;;;;;22.50;100710.00;;;;10536433;28;20251;-77
2023/07/03 10:20:13;;;;;;;11.65;3.25;;;;;22.80;100706.00;;;;10535603;28;20207;-83
2023/07/03 10:25:21;;;;;;;10.50;2.97;;;;;24.00;100715.00;;;;10529317;28;20693;-83
2023/07/03 10:30:23;;;;;;;12.45;3.25;;;;;23.20;100719.00;;;;10547723;28;20279;-83
2023/07/03 10:35:28;;;;;;;11.70;3.00;;;;;23.70;100708.00;;;;10531234;28;20212;-77
2023/07/03 10:40:37;;;;;;;10.73;3.40;;;;;25.10;100717.00;;;;10517941;28;20204;-74
2023/07/03 10:45:39;;;;;;;6.75;2.72;;;;;27.50;100691.00;;;;10528027;28;20221;-76
2023/07/03 10:50:50;;;;;;;8.77;3.17;;;;;27.20;100712.00;;;;10498899;28;20212;-76
2023/07/03 10:56:06;;;;;;;13.40;3.20;;;;;28.00;100695.00;;;;10476224;28;20205;-83
2023/07/03 11:01:23;;;;;;;9.38;3.40;;;;;27.70;100701.00;;;;10534928;28;20207;-76
2023/07/03 11:06:25;;;;;;;9.65;3.10;;;;;26.40;100710.00;;;;10536325;28;20200;-75
2023/07/03 11:11:41;;;;;;;11.40;3.03;;;;;24.50;100710.00;;;;10543362;28;20227;-82
2023/07/03 11:16:58;;;;;;;12.27;3.53;;;;;23.00;100696.00;;;;10543680;28;20227;-76
2023/07/03 11:22:15;;;;;;;12.88;3.90;;;;;22.40;100698.00;;;;10513767;28;20217;-82
2023/07/03 11:27:28;;;;;;;13.82;3.60;;;;;24.50;100681.00;;;;10489043;28;20749;-76
2023/07/03 11:32:35;;;;;;;17.45;3.63;;;;;26.30;100701.00;;;;10526368;28;20232;-78
2023/07/03 11:37:40;;;;;;;7.20;3.25;;;;;26.50;100698.00;;;;10539285;28;20201;-83
2023/07/03 11:42:44;;;;;;;12.05;3.13;;;;;25.40;100693.00;;;;10533964;28;20295;-83
2023/07/03 11:47:48;;;;;;;13.25;3.00;;;;;24.60;100688.00;;;;10521904;28;20188;-74
2023/07/03 11:52:50;;;;;;;12.48;2.70;;;;;25.40;100683.00;;;;10519340;28;20212;-75
2023/07/03 11:57:56;;;;;;;9.23;2.75;;;;;28.10;100679.00;;;;10515236;28;20233;-76
2023/07/03 12:03:56;;;;;;;9.02;2.70;;;;;27.40;100693.00;;;;10515936;28;20266;-76
2023/07/03 12:09:21;;;;;;;10.80;3.22;;;;;27.60;100690.00;;;;10519268;28;20215;-82
2023/07/03 12:14:44;;;;;;;7.05;2.13;;;;;27.20;100702.00;;;;10539496;28;20283;-75
2023/07/03 12:19:47;;;;;;;8.70;2.58;;;;;28.10;100681.00;;;;10515217;28;20197;-81
2023/07/03 12:25:09;;;;;;;10.43;2.95;;;;;28.40;100682.00;;;;10515705;28;20244;-76
2023/07/03 12:30:19;;;;;;;7.20;1.92;;;;;27.70;100670.00;;;;10528533;28;20201;-81
2023/07/03 12:35:26;;;;;;;14.60;3.25;;;;;26.70;100682.00;;;;10520874;28;20228;-81
2023/07/03 12:40:27;;;;;;;12.55;3.17;;;;;26.40;100680.00;;;;10530307;28;20213;-75
2023/07/03 12:45:30;;;;;;;9.38;3.17;;;;;26.70;100691.00;;;;10511808;28;20231;-74
2023/07/03 12:50:33;;;;;;;9.27;2.97;;;;;26.20;100688.00;;;;10531632;28;20658;-76
2023/07/03 12:55:36;;;;;;;10.40;3.08;;;;;25.90;100697.00;;;;10520023;28;20574;-79
2023/07/03 13:00:38;;;;;;;17.25;3.63;;;;;25.40;100676.00;;;;10511880;28;20654;-79
2023/07/03 13:05:39;;;;;;;12.20;3.63;;;;;26.20;100678.00;;;;10526666;28;20304;-75
2023/07/03 13:11:02;;;;;;;13.63;3.33;;;;;26.80;100673.00;;;;10524238;28;20208;-84
2023/07/03 13:16:17;;;;;;;10.40;3.35;;;;;27.40;100671.00;;;;10532802;28;20256;-75
2023/07/03 13:21:19;;;;;;;9.68;3.25;;;;;28.20;100667.00;;;;10506987;28;20253;-75
2023/07/03 13:26:24;;;;;;;10.52;3.00;;;;;28.60;100664.00;;;;10529268;28;20201;-78
2023/07/03 13:31:27;;;;;;;10.40;3.50;;;;;29.10;100666.00;;;;10523837;28;20197;-84
2023/07/03 13:37:01;;;;;;;11.90;3.47;;;;;29.20;100681.00;;;;10526002;28;20229;-82
2023/07/03 13:42:04;;;;;;;9.25;4.18;;;;;28.50;100678.00;;;;10509829;28;20236;-78
2023/07/03 13:47:06;;;;;;;14.38;4.70;;;;;26.90;100683.00;;;;10500469;28;20213;-82
2023/07/03 13:52:07;;;;;;;7.05;4.00;;;;;26.20;100652.00;;;;10485852;28;20738;-78
2023/07/03 13:57:08;;;;;;;15.57;5.78;;;;;25.50;100654.00;;;;10511990;28;20220;-80
2023/07/03 14:02:10;;;;;;;10.93;4.30;;;;;26.60;100664.00;;;;10501006;28;20209;-82
2023/07/03 14:07:11;;;;;;;14.88;3.72;;;;;27.40;100651.00;;;;10488895;28;20625;-77
2023/07/03 14:12:13;;;;;;;10.75;4.60;;;;;27.50;100657.00;;;;10485757;28;20648;-81
2023/07/03 14:17:14;;;;;;;12.27;4.38;;;;;27.50;100658.00;;;;10499860;28;20193;-85
2023/07/03 14:22:15;;;;;;;10.77;4.75;;;;;27.00;100646.00;;;;10510131;28;20216;-82
2023/07/03 14:27:17;;;;;;;9.65;3.80;;;;;27.20;100657.00;;;;10523410;28;20197;-82
2023/07/03 14:32:18;;;;;;;10.63;4.40;;;;;27.40;100661.00;;;;10516213;28;20197;-85
2023/07/03 14:37:19;;;;;;;16.05;4.10;;;;;27.00;100660.00;;;;10535687;28;20211;-81
2023/07/03 14:42:21;;;;;;;9.80;3.60;;;;;26.30;100656.00;;;;10511587;28;20562;-77
2023/07/03 14:47:22;;;;;;;12.68;3.67;;;;;25.80;100656.00;;;;10520591;28;20209;-78
2023/07/03 14:52:24;;;;;;;12.00;3.80;;;;;25.30;100648.00;;;;10524109;28;20201;-77
2023/07/03 14:57:25;;;;;;;12.23;3.70;;;;;26.10;100639.00;;;;10514955;28;20593;-82
2023/07/03 15:02:27;;;;;;;8.07;3.35;;;;;26.40;100654.00;;;;10533351;28;20216;-79
2023/07/03 15:07:28;;;;;;;10.18;3.15;;;;;25.60;100647.00;;;;10502190;28;20670;-77
2023/07/03 15:12:29;;;;;;;15.98;4.05;;;;;26.30;100641.00;;;;10513608;28;20221;-80
2023/07/03 15:17:31;;;;;;;6.68;3.10;;;;;26.20;100631.00;;;;10516449;28;20197;-75
2023/07/03 15:22:32;;;;;;;15.52;4.82;;;;;26.10;100635.00;;;;10526861;28;20232;-80
2023/07/03 15:27:33;;;;;;;11.23;3.50;;;;;25.80;100628.00;;;;10505690;28;20204;-81
2023/07/03 15:32:35;;;;;;;8.30;3.00;;;;;26.40;100636.00;;;;10541720;28;20201;-76
2023/07/03 15:37:36;;;;;;;14.20;3.83;;;;;26.50;100612.00;;;;10519474;28;20201;-75
2023/07/03 15:42:38;;;;;;;8.15;3.42;;;;;27.20;100618.00;;;;10523692;28;20217;-86
2023/07/03 15:47:42;;;;;;;6.20;2.95;;;;;26.90;100625.00;;;;10515823;28;20212;-76
2023/07/03 15:52:44;;;;;;;8.48;2.92;;;;;26.30;100626.00;;;;10524641;28;20193;-76
2023/07/03 15:57:45;;;;;;;10.88;3.30;;;;;25.80;100613.00;;;;10523476;28;20629;-75
2023/07/03 16:02:47;;;;;;;9.35;3.42;;;;;25.40;100599.00;;;;10519628;28;20209;-75
2023/07/03 16:07:48;;;;;;;8.20;3.13;;;;;25.00;100598.00;;;;10535662;28;20288;-78
2023/07/03 16:12:49;;;;;;;9.68;2.92;;;;;24.90;100611.00;;;;10535548;28;20200;-77
2023/07/03 16:17:51;;;;;;;12.77;2.83;;;;;24.70;100598.00;;;;10527379;28;20228;-76
2023/07/03 16:22:52;;;;;;;8.18;2.97;;;;;24.60;100597.00;;;;10508780;28;20217;-75
2023/07/03 16:27:53;;;;;;;9.30;2.70;;;;;24.70;100589.00;;;;10510384;28;20235;-78
2023/07/03 16:32:55;;;;;;;11.07;2.75;;;;;24.50;100600.00;;;;10512070;28;20204;-77
2023/07/03 16:38:00;;;;;;;8.98;2.70;;;;;24.00;100596.00;;;;10513565;28;20209;-78
2023/07/03 16:43:01;;;;;;;9.48;2.47;;;;;23.90;100586.00;;;;10516221;28;20253;-84
2023/07/03 16:48:02;;;;;;;8.55;2.67;;;;;23.80;100579.00;;;;10498184;28;20670;-85
2023/07/03 16:53:04;;;;;;;7.85;2.65;;;;;23.80;100575.00;;;;10505099;28;20196;-77
2023/07/03 16:58:05;;;;;;;9.18;2.72;;;;;23.70;100576.00;;;;10536876;28;20204;-82
2023/07/03 17:03:09;;;;;;;10.80;2.92;;;;;23.50;100577.00;;;;10505517;28;20270;-81
2023/07/03 17:08:11;;;;;;;9.25;3.00;;;;;23.40;100578.00;;;;10488457;28;20200;-76
2023/07/03 17:13:12;;;;;;;11.60;3.03;;;;;22.90;100591.00;;;;10520425;28;20236;-82
2023/07/03 17:18:14;;;;;;;9.23;3.00;;;;;22.60;100589.00;;;;10511491;28;20201;-76
2023/07/03 17:23:15;;;;;;;9.38;2.50;;;;;22.20;100592.00;;;;10502055;28;20715;-83
2023/07/03 17:28:16;;;;;;;7.72;2.70;;;;;22.10;100591.00;;;;10504746;28;20219;-79
2023/07/03 17:33:18;;;;;;;8.77;3.28;;;;;22.00;100590.00;;;;10496205;28;20207;-77
2023/07/03 17:38:19;;;;;;;5.90;3.03;;;;;22.10;100597.00;;;;10483815;28;20201;-79
2023/07/03 17:43:23;;;;;;;9.55;3.00;;;;;22.20;100599.00;;;;10474535;28;20705;-76
2023/07/03 17:48:26;;;;;;;7.97;2.55;;;;;22.10;100583.00;;;;10496612;28;20212;-81
2023/07/03 17:53:27;;;;;;;7.88;3.03;;;;;22.10;100581.00;;;;10475023;28;20474;-77
2023/07/03 17:58:28;;;;;;;8.95;2.60;;;;;22.00;100601.00;;;;10461456;28;20524;-79
2023/07/03 18:03:32;;;;;;;8.57;2.95;;;;;21.80;100607.00;;;;10491835;28;20220;-80
2023/07/03 18:08:33;;;;;;;9.50;3.05;;;;;21.50;100597.00;;;;10496523;28;20211;-79
2023/07/03 18:13:35;;;;;;;6.32;2.33;;;;;21.20;100601.00;;;;10469634;28;20193;-79
2023/07/03 18:18:36;;;;;;;8.60;3.15;;;;;20.90;100595.00;;;;10503040;28;20200;-82
2023/07/03 18:23:37;;;;;;;9.77;2.65;;;;;20.80;100602.00;;;;10467958;28;20229;-77
2023/07/03 18:28:39;;;;;;;8.05;2.13;;;;;20.50;100613.00;;;;10470601;28;20222;-78
2023/07/03 18:33:40;;;;;;;9.88;2.72;;;;;20.30;100600.00;;;;10502851;28;20197;-83
2023/07/03 18:38:42;;;;;;;8.48;2.45;;;;;20.20;100599.00;;;;10483524;28;20689;-78
2023/07/03 18:43:45;;;;;;;9.40;2.65;;;;;20.10;100604.00;;;;10471384;28;20247;-77
2023/07/03 18:48:46;;;;;;;8.15;2.20;;;;;19.90;100608.00;;;;10478150;28;20235;-82
2023/07/03 18:53:49;;;;;;;7.35;2.38;;;;;19.70;100616.00;;;;10482675;28;20204;-76
2023/07/03 18:58:50;;;;;;;6.57;2.15;;;;;19.60;100619.00;;;;10500413;28;20677;-81
2023/07/03 19:03:52;;;;;;;11.98;2.78;;;;;19.40;100619.00;;;;10472693;28;20769;-81
2023/07/03 19:08:53;;;;;;;12.30;2.90;;;;;19.20;100628.00;;;;10489262;28;20295;-80
2023/07/03 19:13:55;;;;;;;8.25;2.10;;;;;19.00;100629.00;;;;10473498;28;20359;-77
2023/07/03 19:18:56;;;;;;;9.65;2.45;;;;;18.80;100618.00;;;;10467019;28;20201;-82
2023/07/03 19:23:57;;;;;;;5.78;2.35;;;;;18.70;100616.00;;;;10496158;28;20653;-79
2023/07/03 19:29:01;;;;;;;10.77;2.28;;;;;18.50;100635.00;;;;10479472;28;20209;-82
2023/07/03 19:34:03;;;;;;;9.40;2.53;;;;;18.40;100622.00;;;;10488457;28;20476;-80
2023/07/03 19:39:05;;;;;;;7.88;2.88;;;;;18.30;100646.00;;;;10452629;28;20410;-78
2023/07/03 19:44:07;;;;;;;10.05;2.70;;;;;18.20;100634.00;;;;10503822;28;20681;-80
2023/07/03 19:49:08;;;;;;;8.82;2.80;;;;;18.20;100633.00;;;;10499412;28;20197;-77
2023/07/03 19:54:10;;;;;;;8.45;2.67;;;;;18.20;100649.00;;;;10471801;28;20205;-82
2023/07/03 19:59:14;;;;;;;11.07;2.70;;;;;18.20;100654.00;;;;10501364;28;20207;-77
2023/07/03 20:04:15;;;;;;;11.07;2.95;;;;;18.30;100657.00;;;;10477256;28;20461;-76
2023/07/03 20:09:17;;;;;;;9.57;2.75;;;;;18.20;100665.00;;;;10505387;28;20591;-78
2023/07/03 20:14:20;;;;;;;6.75;2.85;;;;;18.10;100664.00;;;;10484678;28;20589;-77
2023/07/03 20:19:21;;;;;;;7.80;2.90;;;;;17.90;100658.00;;;;10497173;28;20295;-81
2023/07/03 20:24:22;;;;;;;8.27;3.20;;;;;17.80;100664.00;;;;10488874;28;20212;-79
2023/07/03 20:29:23;;;;;;;7.97;2.83;;;;;17.60;100672.00;;;;10503179;28;20219;-83
2023/07/03 20:34:25;;;;;;;8.95;3.28;;;;;17.50;100673.00;;;;10507586;28;20448;-80
2023/07/03 20:39:26;;;;;;;11.13;3.20;;;;;17.40;100680.00;;;;10497574;28;20257;-82
2023/07/03 20:44:27;;;;;;;7.63;2.63;;;;;17.40;100680.00;;;;10467838;28;20632;-81
2023/07/03 20:49:30;;;;;;;13.57;3.17;;;;;17.30;100678.00;;;;10493008;28;20204;-79
2023/07/03 20:54:37;;;;;;;11.52;3.58;;;;;17.20;100671.00;;;;10510648;28;20239;-79
2023/07/03 20:59:38;;;;;;;13.05;3.25;;;;;17.20;100684.00;;;;10488438;28;20574;-76
2023/07/03 21:04:40;;;;;;;7.20;2.95;;;;;17.20;100680.00;;;;10501789;28;20229;-77
2023/07/03 21:09:41;;;;;;;13.02;3.15;;;;;17.10;100686.00;;;;10474762;28;20616;-83
2023/07/03 21:14:43;;;;;;;11.57;3.42;;;;;17.00;100683.00;;;;10495936;28;20331;-78
2023/07/03 21:19:44;;;;;;;14.20;3.20;;;;;17.00;100683.00;;;;10471912;28;20198;-80
2023/07/03 21:24:47;;;;;;;6.70;3.15;;;;;16.90;100682.00;;;;10501893;28;20298;-81
2023/07/03 21:29:48;;;;;;;12.60;3.53;;;;;16.90;100677.00;;;;10486458;28;20197;-76
2023/07/03 21:34:50;;;;;;;15.93;3.58;;;;;16.80;100678.00;;;;10509916;28;20390;-82
2023/07/03 21:39:51;;;;;;;7.95;2.67;;;;;16.80;100687.00;;;;10490994;28;20298;-80
2023/07/03 21:44:52;;;;;;;11.77;3.13;;;;;16.80;100683.00;;;;10513740;28;20645;-81
2023/07/03 21:49:54;;;;;;;9.75;3.25;;;;;16.80;100680.00;;;;10512151;28;20193;-79
2023/07/03 21:54:55;;;;;;;13.23;2.90;;;;;16.70;100683.00;;;;10477518;28;20236;-81
2023/07/03 21:59:56;;;;;;;13.40;3.45;;;;;16.60;100688.00;;;;10475590;28;20197;-80
2023/07/03 22:04:58;;;;;;;12.55;3.25;;;;;16.50;100678.00;;;;10473649;28;20292;-79
2023/07/03 22:09:59;;;;;;;10.50;3.20;;;;;16.60;100683.00;;;;10452508;28;20307;-78
2023/07/03 22:15:00;;;;;;;12.35;3.05;;;;;16.50;100677.00;;;;10491704;28;20227;-80
2023/07/03 22:20:02;;;;;;;13.43;3.75;;;;;16.50;100673.00;;;;10468222;28;20197;-81
2023/07/03 22:25:05;;;;;;;15.85;3.95;;;;;16.40;100676.00;;;;10470538;28;20213;-76
2023/07/03 22:30:07;;;;;;;8.07;3.10;;;;;16.30;100683.00;;;;10484071;28;20709;-78
2023/07/03 22:35:12;;;;;;;9.18;3.47;;;;;16.30;100691.00;;;;10477538;28;20193;-80
2023/07/03 22:40:14;;;;;;;13.23;3.35;;;;;16.20;100693.00;;;;10476594;28;20205;-79
2023/07/03 22:45:15;;;;;;;13.68;3.50;;;;;16.10;100704.00;;;;10493953;28;20248;-79
2023/07/03 22:50:17;;;;;;;12.45;2.97;;;;;16.00;100706.00;;;;10490275;28;20200;-79
2023/07/03 22:55:18;;;;;;;14.07;3.60;;;;;16.00;100708.00;;;;10475486;28;20201;-79
2023/07/03 23:00:20;;;;;;;14.00;4.03;;;;;15.90;100719.00;;;;10489878;28;20212;-79
2023/07/03 23:05:21;;;;;;;18.50;4.47;;;;;15.90;100720.00;;;;10500494;28;20216;-79
2023/07/03 23:10:22;;;;;;;14.60;3.15;;;;;15.90;100718.00;;;;10519889;28;20204;-78
2023/07/03 23:15:25;;;;;;;14.45;3.38;;;;;15.90;100718.00;;;;10495060;28;20264;-79
2023/07/03 23:20:27;;;;;;;18.92;4.38;;;;;15.80;100732.00;;;;10491277;28;20654;-80
2023/07/03 23:25:29;;;;;;;15.50;3.60;;;;;15.70;100738.00;;;;10472911;28;20605;-77
2023/07/03 23:30:33;;;;;;;12.90;3.78;;;;;15.70;100733.00;;;;10493562;28;20204;-76
2023/07/03 23:35:38;;;;;;;11.00;3.97;;;;;15.70;100740.00;;;;10470856;28;20265;-78
2023/07/03 23:40:39;;;;;;;16.05;3.80;;;;;15.80;100725.00;;;;10497946;28;20224;-79
2023/07/03 23:45:43;;;;;;;15.60;4.03;;;;;15.80;100724.00;;;;10481304;28;20320;-83
2023/07/03 23:50:55;;;;;;;17.90;3.90;;;;;15.70;100717.00;;;;10477586;28;20276;-81
2023/07/03 23:55:56;;;;;;;15.35;3.92;;;;;15.60;100718.00;;;;10510606;28;20191;-77
